Time;durP1;ratioP1;P1;durP2;ratioP2;P2;SDS_P1;SDS_P2;PMS_P1;PMS_P2;Temp;Humidity;BMP_temperature;BMP_pressure;BME280_temperature;BME280_humidity;BME280_pressure;Samples;Min_cycle;Max_cycle;Signal;HPM_P1;HPM_P2
2020/12/05 00:00:49;;;;;;;39.80;26.73;;;2.90;99.90;;;;;;5056261;28;20432;-72
2020/12/05 00:03:16;;;;;;;33.03;23.43;;;2.90;99.90;;;;;;5056762;28;20893;-71
2020/12/05 00:05:42;;;;;;;36.27;26.17;;;3.00;99.90;;;;;;5056436;28;20436;-72
2020/12/05 00:08:09;;;;;;;40.43;25.87;;;3.00;99.90;;;;;;5056187;28;20428;-71
2020/12/05 00:10:37;;;;;;;38.87;27.70;;;3.00;99.90;;;;;;5056184;28;20440;-71
2020/12/05 00:13:03;;;;;;;35.53;24.40;;;3.00;99.90;;;;;;5056101;28;20456;-71
2020/12/05 00:15:30;;;;;;;40.90;26.63;;;3.00;99.90;;;;;;5056165;28;20424;-72
2020/12/05 00:17:56;;;;;;;38.60;26.90;;;2.90;99.90;;;;;;5060212;28;20447;-71
2020/12/05 00:20:23;;;;;;;41.03;26.70;;;2.90;99.90;;;;;;5066792;28;20478;-71
2020/12/05 00:22:49;;;;;;;35.60;23.77;;;2.90;99.90;;;;;;5076104;28;20448;-72
2020/12/05 00:25:16;;;;;;;36.87;25.30;;;2.90;99.90;;;;;;5076972;28;20435;-72
2020/12/05 00:27:44;;;;;;;38.70;25.40;;;2.90;99.90;;;;;;5076745;28;20447;-71
2020/12/05 00:30:10;;;;;;;33.60;23.60;;;2.90;99.90;;;;;;5076445;28;20499;-72
2020/12/05 00:32:37;;;;;;;38.50;24.70;;;2.90;99.90;;;;;;5065400;28;20520;-71
2020/12/05 00:35:04;;;;;;;35.77;24.10;;;2.80;99.90;;;;;;5055943;28;20452;-71
2020/12/05 00:37:31;;;;;;;33.20;23.80;;;2.80;99.90;;;;;;5056457;28;20447;-72
2020/12/05 00:39:58;;;;;;;37.13;25.73;;;2.70;99.90;;;;;;5055788;28;20781;-70
2020/12/05 00:42:25;;;;;;;33.70;23.90;;;2.70;99.90;;;;;;5055354;28;20452;-72
2020/12/05 00:44:52;;;;;;;33.13;23.90;;;2.70;99.90;;;;;;5055224;28;20436;-72
2020/12/05 00:47:19;;;;;;;43.20;23.93;;;2.70;99.90;;;;;;5057127;28;20937;-72
2020/12/05 00:49:46;;;;;;;35.23;25.07;;;2.70;99.90;;;;;;5054592;28;20436;-72
2020/12/05 00:52:13;;;;;;;40.47;25.27;;;2.80;99.90;;;;;;5054237;28;20460;-71
2020/12/05 00:54:39;;;;;;;36.53;24.33;;;2.80;99.90;;;;;;5054292;28;21132;-71
2020/12/05 00:57:06;;;;;;;36.13;23.17;;;2.90;99.90;;;;;;5054379;28;20435;-72
2020/12/05 00:59:32;;;;;;;37.10;24.53;;;2.80;99.90;;;;;;5066350;28;20474;-71
2020/12/05 01:02:00;;;;;;;35.93;24.33;;;2.80;99.90;;;;;;5073687;28;20463;-71
2020/12/05 01:04:26;;;;;;;37.70;25.30;;;2.80;99.90;;;;;;5074430;28;20835;-71
2020/12/05 01:06:53;;;;;;;37.50;23.97;;;2.80;99.90;;;;;;5076579;28;20431;-71
2020/12/05 01:09:19;;;;;;;34.63;22.17;;;2.80;99.90;;;;;;5074699;28;20771;-71
2020/12/05 01:11:46;;;;;;;35.33;23.83;;;2.80;99.90;;;;;;5061115;28;20888;-71
2020/12/05 01:14:13;;;;;;;36.57;25.10;;;2.80;99.90;;;;;;5054141;28;20483;-71
2020/12/05 01:16:40;;;;;;;33.90;22.77;;;2.90;99.90;;;;;;5053646;28;20928;-71
2020/12/05 01:19:07;;;;;;;31.50;22.97;;;2.80;99.90;;;;;;5053865;28;20778;-71
2020/12/05 01:21:34;;;;;;;34.50;22.97;;;2.90;99.90;;;;;;5053514;28;20467;-71
2020/12/05 01:24:00;;;;;;;32.93;22.03;;;2.90;99.90;;;;;;5053539;28;20922;-71
2020/12/05 01:26:27;;;;;;;37.90;24.20;;;2.90;99.90;;;;;;5053847;28;20482;-71
2020/12/05 01:28:54;;;;;;;34.33;23.93;;;2.90;99.90;;;;;;5053309;28;20505;-71
2020/12/05 01:31:20;;;;;;;35.23;22.70;;;3.00;99.90;;;;;;5053134;28;20525;-71
2020/12/05 01:33:47;;;;;;;32.37;22.20;;;3.10;99.90;;;;;;5052798;28;20535;-71
2020/12/05 01:36:14;;;;;;;30.23;23.30;;;3.10;99.90;;;;;;5053477;28;20489;-72
2020/12/05 01:38:41;;;;;;;30.23;22.40;;;3.10;99.90;;;;;;5053483;28;20472;-71
2020/12/05 01:41:07;;;;;;;34.40;23.77;;;3.10;99.90;;;;;;5053025;28;20455;-72
2020/12/05 01:43:34;;;;;;;32.57;23.40;;;3.10;99.90;;;;;;5053213;28;20440;-71
2020/12/05 01:46:03;;;;;;;33.53;23.87;;;3.20;99.90;;;;;;5053329;28;20441;-71
2020/12/05 01:48:30;;;;;;;33.07;23.10;;;3.20;99.90;;;;;;5055027;28;20494;-71
2020/12/05 01:50:57;;;;;;;33.90;24.03;;;3.30;99.90;;;;;;5053346;28;20445;-72
2020/12/05 01:53:25;;;;;;;33.37;22.87;;;3.30;99.90;;;;;;5053127;28;20475;-71
2020/12/05 01:55:52;;;;;;;33.70;22.93;;;3.30;99.90;;;;;;5053127;28;20502;-72
2020/12/05 01:58:20;;;;;;;34.73;24.00;;;3.30;99.90;;;;;;5053060;28;20436;-72
2020/12/05 02:00:47;;;;;;;34.10;22.50;;;3.20;99.90;;;;;;5052954;28;20424;-72
2020/12/05 02:03:14;;;;;;;34.40;23.67;;;3.20;99.90;;;;;;5052816;28;20444;-72
2020/12/05 02:05:57;;;;;;;33.53;23.80;;;3.10;99.90;;;;;;5052724;28;20849;-72
2020/12/05 02:08:30;;;;;;;35.87;23.70;;;3.10;99.90;;;;;;5053253;28;20424;-71
2020/12/05 02:10:58;;;;;;;34.97;24.63;;;3.10;99.90;;;;;;5052541;28;20857;-72
2020/12/05 02:13:30;;;;;;;35.97;25.90;;;3.10;99.90;;;;;;5053265;28;20451;-72
2020/12/05 02:15:57;;;;;;;36.00;23.87;;;3.00;99.90;;;;;;5053883;28;20428;-72
2020/12/05 02:18:25;;;;;;;37.80;25.60;;;2.90;99.90;;;;;;5053811;28;20432;-71
2020/12/05 02:20:56;;;;;;;35.10;25.80;;;2.80;99.90;;;;;;5062208;28;20435;-72
2020/12/05 02:23:24;;;;;;;34.27;23.60;;;2.70;99.90;;;;;;5059539;28;20964;-72
2020/12/05 02:25:55;;;;;;;35.10;24.93;;;2.70;99.90;;;;;;5060416;28;20706;-72
2020/12/05 02:28:23;;;;;;;38.83;26.30;;;2.60;99.90;;;;;;5055223;28;20526;-72
2020/12/05 02:30:50;;;;;;;40.37;27.13;;;2.60;99.90;;;;;;5052356;28;20457;-71
2020/12/05 02:33:18;;;;;;;44.77;28.37;;;2.50;99.90;;;;;;5052443;28;20432;-72
2020/12/05 02:35:45;;;;;;;43.57;27.07;;;2.60;99.90;;;;;;5051933;28;20497;-71
2020/12/05 02:38:17;;;;;;;43.63;28.40;;;2.60;99.90;;;;;;5052479;28;20478;-71
2020/12/05 02:40:45;;;;;;;45.07;28.63;;;2.50;99.90;;;;;;5051820;28;20988;-71
2020/12/05 02:43:12;;;;;;;46.10;29.57;;;2.50;99.90;;;;;;5051846;28;20817;-71
2020/12/05 02:45:40;;;;;;;42.40;28.53;;;2.50;99.90;;;;;;5051329;28;20464;-71
2020/12/05 02:48:07;;;;;;;45.83;31.20;;;2.40;99.90;;;;;;5051780;28;20440;-71
2020/12/05 02:50:33;;;;;;;46.90;29.90;;;2.30;99.90;;;;;;5052006;28;20757;-71
2020/12/05 02:53:00;;;;;;;50.20;31.07;;;2.20;99.90;;;;;;5051684;28;20506;-71
2020/12/05 02:55:27;;;;;;;48.47;28.67;;;2.20;99.90;;;;;;5052085;28;20734;-71
2020/12/05 02:57:54;;;;;;;49.67;28.73;;;2.10;99.90;;;;;;5051906;28;20436;-71
2020/12/05 03:00:21;;;;;;;52.07;29.90;;;2.10;99.90;;;;;;5051489;28;20601;-71
2020/12/05 03:02:48;;;;;;;49.50;29.50;;;2.00;99.90;;;;;;5051663;28;20460;-71
2020/12/05 03:05:14;;;;;;;51.10;32.77;;;1.90;99.90;;;;;;5051633;28;20914;-71
2020/12/05 03:07:41;;;;;;;47.60;30.27;;;1.90;99.90;;;;;;5051935;28;20458;-71
2020/12/05 03:10:07;;;;;;;49.43;29.87;;;1.80;99.90;;;;;;5051320;28;20493;-71
2020/12/05 03:12:34;;;;;;;48.77;30.97;;;1.80;99.90;;;;;;5050983;28;20466;-71
2020/12/05 03:15:02;;;;;;;56.60;31.60;;;1.80;99.90;;;;;;5051671;28;20428;-71
2020/12/05 03:17:28;;;;;;;48.23;29.33;;;1.80;99.90;;;;;;5051449;28;20498;-71
2020/12/05 03:19:55;;;;;;;55.27;33.37;;;1.80;99.90;;;;;;5051261;28;20480;-70
2020/12/05 03:22:21;;;;;;;49.70;29.80;;;1.80;99.90;;;;;;5050746;28;20459;-71
2020/12/05 03:24:48;;;;;;;49.47;30.13;;;1.80;99.90;;;;;;5051539;28;20917;-71
2020/12/05 03:27:14;;;;;;;44.03;28.17;;;1.70;99.90;;;;;;5051524;28;20452;-71
2020/12/05 03:29:41;;;;;;;54.27;30.23;;;1.70;99.90;;;;;;5051277;28;20444;-71
2020/12/05 03:32:12;;;;;;;47.80;29.17;;;1.80;99.90;;;;;;5051128;28;20470;-71
2020/12/05 03:34:41;;;;;;;49.07;27.47;;;1.80;99.90;;;;;;5051372;28;20913;-71
2020/12/05 03:37:08;;;;;;;41.43;27.87;;;1.80;99.90;;;;;;5051686;28;20467;-71
2020/12/05 03:39:35;;;;;;;40.27;26.30;;;1.90;99.90;;;;;;5051289;28;20480;-71
2020/12/05 03:42:01;;;;;;;47.90;28.10;;;1.90;99.90;;;;;;5051143;28;20464;-71
2020/12/05 03:44:28;;;;;;;46.63;26.63;;;1.90;99.90;;;;;;5050942;28;20465;-71
2020/12/05 03:46:54;;;;;;;40.90;25.93;;;1.80;99.90;;;;;;5051284;28;20428;-71
2020/12/05 03:49:22;;;;;;;46.83;27.40;;;1.80;99.90;;;;;;5051062;28;20443;-71
2020/12/05 03:51:49;;;;;;;50.53;29.13;;;1.80;99.90;;;;;;5050773;28;20452;-71
2020/12/05 03:54:15;;;;;;;43.70;27.70;;;1.90;99.90;;;;;;5051220;28;20436;-71
2020/12/05 03:56:42;;;;;;;40.03;24.97;;;1.80;99.90;;;;;;5052756;28;20432;-71
2020/12/05 03:59:08;;;;;;;36.97;23.90;;;1.70;99.90;;;;;;5054746;28;20980;-71
2020/12/05 04:01:35;;;;;;;34.30;22.73;;;1.70;99.90;;;;;;5054448;28;20452;-71
2020/12/05 04:04:01;;;;;;;31.30;20.20;;;1.70;99.90;;;;;;5054867;28;20505;-71
2020/12/05 04:06:29;;;;;;;34.00;22.27;;;1.70;99.90;;;;;;5054640;28;20432;-71
2020/12/05 04:08:55;;;;;;;34.20;23.10;;;1.70;99.90;;;;;;5054677;28;20432;-71
2020/12/05 04:11:22;;;;;;;34.13;21.90;;;1.70;99.90;;;;;;5054182;28;20482;-71
2020/12/05 04:13:48;;;;;;;30.57;21.20;;;1.80;99.90;;;;;;5054832;28;20440;-71
2020/12/05 04:16:15;;;;;;;33.37;22.33;;;1.80;99.90;;;;;;5054901;28;20485;-71
2020/12/05 04:18:41;;;;;;;33.77;21.40;;;1.80;99.90;;;;;;5058243;28;20440;-71
2020/12/05 04:21:08;;;;;;;29.80;20.90;;;1.80;99.90;;;;;;5054733;28;20451;-71
2020/12/05 04:23:35;;;;;;;32.17;22.00;;;1.80;99.90;;;;;;5068477;28;20854;-71
2020/12/05 04:26:02;;;;;;;30.33;20.90;;;1.90;99.90;;;;;;5054167;28;20429;-71
2020/12/05 04:28:28;;;;;;;30.97;20.47;;;1.90;99.90;;;;;;5053725;28;20482;-71
2020/12/05 04:30:55;;;;;;;30.70;20.20;;;1.90;99.90;;;;;;5053530;28;20439;-71
2020/12/05 04:33:21;;;;;;;31.03;20.40;;;2.00;99.90;;;;;;5053869;28;20424;-71
2020/12/05 04:35:48;;;;;;;32.87;20.97;;;2.00;99.90;;;;;;5053817;28;20933;-71
2020/12/05 04:38:15;;;;;;;31.50;20.83;;;2.00;99.90;;;;;;5054030;28;20436;-71
2020/12/05 04:40:42;;;;;;;34.27;26.87;;;2.10;99.90;;;;;;5052331;28;20455;-71
2020/12/05 04:43:09;;;;;;;31.17;22.10;;;2.10;99.90;;;;;;5053800;28;20452;-71
2020/12/05 04:45:35;;;;;;;33.43;22.17;;;2.20;99.90;;;;;;5053823;28;20498;-71
2020/12/05 04:48:02;;;;;;;33.63;21.50;;;2.10;99.90;;;;;;5053817;28;20450;-71
2020/12/05 04:50:31;;;;;;;35.30;22.70;;;2.10;99.90;;;;;;5053223;28;20439;-71
2020/12/05 04:53:08;;;;;;;29.53;21.60;;;2.00;99.90;;;;;;5053867;28;20539;-71
2020/12/05 04:55:39;;;;;;;32.27;22.33;;;2.10;99.90;;;;;;5053522;28;20840;-71
2020/12/05 04:58:14;;;;;;;34.07;22.60;;;2.00;99.90;;;;;;5053640;28;20455;-71
2020/12/05 05:00:42;;;;;;;35.90;22.87;;;1.90;99.90;;;;;;5052922;28;20480;-71
2020/12/05 05:03:10;;;;;;;29.30;23.00;;;1.90;99.90;;;;;;5053302;28;20452;-71
2020/12/05 05:05:37;;;;;;;30.23;21.80;;;1.90;99.90;;;;;;5053113;28;20519;-71
2020/12/05 05:08:03;;;;;;;26.47;20.40;;;1.80;99.90;;;;;;5052757;28;20478;-72
2020/12/05 05:10:32;;;;;;;33.07;20.90;;;1.80;99.90;;;;;;5053074;28;20440;-71
2020/12/05 05:13:04;;;;;;;28.23;20.70;;;1.80;99.90;;;;;;5052727;28;20518;-73
2020/12/05 05:15:33;;;;;;;32.70;22.60;;;1.80;99.90;;;;;;5052980;28;20436;-71
2020/12/05 05:18:01;;;;;;;31.50;21.73;;;1.80;99.90;;;;;;5053496;28;20909;-72
2020/12/05 05:20:29;;;;;;;30.27;20.27;;;1.90;99.90;;;;;;5052682;28;20861;-72
2020/12/05 05:23:18;;;;;;;30.87;20.60;;;1.90;99.90;;;;;;5052661;28;20510;-72
2020/12/05 05:25:56;;;;;;;27.60;20.37;;;1.80;99.90;;;;;;5048606;28;20534;-72
2020/12/05 05:28:28;;;;;;;26.37;18.43;;;1.80;99.90;;;;;;5052678;28;20443;-72
2020/12/05 05:31:03;;;;;;;35.87;22.03;;;1.90;99.90;;;;;;5052497;28;20421;-71
2020/12/05 05:33:45;;;;;;;31.00;19.50;;;1.90;99.90;;;;;;5052866;28;20432;-71
2020/12/05 05:36:22;;;;;;;27.80;19.33;;;1.90;99.90;;;;;;5052913;28;20435;-71
2020/12/05 05:38:59;;;;;;;26.93;19.93;;;2.00;99.90;;;;;;5052533;28;20439;-71
2020/12/05 05:41:27;;;;;;;30.57;20.60;;;2.00;99.90;;;;;;5052528;28;20974;-71
2020/12/05 05:43:58;;;;;;;34.20;21.57;;;2.10;99.90;;;;;;5052424;28;20437;-71
2020/12/05 05:46:30;;;;;;;36.80;25.87;;;2.10;99.90;;;;;;5052656;28;20913;-72
2020/12/05 05:48:57;;;;;;;35.60;24.27;;;2.00;99.90;;;;;;5052443;28;20841;-72
2020/12/05 05:51:41;;;;;;;41.33;25.33;;;2.00;99.90;;;;;;5052556;28;20448;-72
2020/12/05 05:54:16;;;;;;;35.87;24.60;;;2.10;99.90;;;;;;5051852;28;20416;-72
2020/12/05 05:57:11;;;;;;;36.40;23.53;;;2.10;99.90;;;;;;5052428;28;20428;-72
2020/12/05 05:59:39;;;;;;;28.50;22.10;;;2.20;99.90;;;;;;5052022;28;20468;-72
2020/12/05 06:02:08;;;;;;;29.67;22.83;;;2.20;99.90;;;;;;5052151;28;20453;-72
2020/12/05 06:04:37;;;;;;;30.10;21.73;;;2.10;99.90;;;;;;5052299;28;20447;-72
2020/12/05 06:07:05;;;;;;;26.30;20.17;;;2.10;99.90;;;;;;5052649;28;20486;-72
2020/12/05 06:09:44;;;;;;;29.10;20.80;;;2.00;99.90;;;;;;5052814;28;20444;-72
2020/12/05 06:12:12;;;;;;;26.03;18.63;;;2.00;99.90;;;;;;5051868;28;20800;-72
2020/12/05 06:14:41;;;;;;;32.92;23.17;;;2.10;99.90;;;;;;5052124;28;20561;-72
2020/12/05 06:17:09;;;;;;;30.57;22.30;;;2.10;99.90;;;;;;5052111;28;20202;-72
2020/12/05 06:19:39;;;;;;;28.93;21.37;;;2.20;99.90;;;;;;5052070;28;20480;-72
2020/12/05 06:22:17;;;;;;;25.23;19.70;;;2.30;99.90;;;;;;5051747;28;20530;-72
2020/12/05 06:24:48;;;;;;;29.97;19.43;;;2.20;99.90;;;;;;5052129;28;20783;-72
2020/12/05 06:27:16;;;;;;;26.50;17.73;;;2.10;99.90;;;;;;5051827;28;20452;-72
2020/12/05 06:29:43;;;;;;;23.20;17.77;;;2.00;99.90;;;;;;5052073;28;20432;-72
2020/12/05 06:32:11;;;;;;;26.00;18.50;;;1.90;99.90;;;;;;5051509;28;20448;-72
2020/12/05 06:34:43;;;;;;;28.50;19.57;;;1.90;99.90;;;;;;5051991;28;20444;-72
2020/12/05 06:37:11;;;;;;;21.00;17.20;;;1.80;99.90;;;;;;5052032;28;20425;-72
2020/12/05 06:39:39;;;;;;;21.10;16.57;;;1.80;99.90;;;;;;5051946;28;20837;-72
2020/12/05 06:42:19;;;;;;;20.70;16.30;;;1.70;99.90;;;;;;5051634;28;20488;-72
2020/12/05 06:44:45;;;;;;;21.33;16.20;;;1.70;99.90;;;;;;5051847;28;20431;-72
2020/12/05 06:47:25;;;;;;;22.20;16.90;;;1.80;99.90;;;;;;5051794;28;20432;-72
2020/12/05 06:49:56;;;;;;;21.20;15.47;;;1.90;99.90;;;;;;5051328;28;20459;-72
2020/12/05 06:52:33;;;;;;;21.67;16.30;;;1.80;99.90;;;;;;5051705;28;21090;-72
2020/12/05 06:55:05;;;;;;;22.03;16.47;;;1.90;99.90;;;;;;5051554;28;20436;-72
2020/12/05 06:57:33;;;;;;;19.53;16.07;;;1.90;99.90;;;;;;5051617;28;20424;-72
2020/12/05 07:00:27;;;;;;;21.83;16.03;;;1.90;99.90;;;;;;5051191;28;20471;-72
2020/12/05 07:02:57;;;;;;;20.70;15.50;;;1.90;99.90;;;;;;5016163;28;20975;-72
2020/12/05 07:05:25;;;;;;;21.47;15.90;;;1.90;99.90;;;;;;5051511;28;20440;-72
2020/12/05 07:07:53;;;;;;;24.27;19.27;;;1.80;99.90;;;;;;5051688;28;20482;-71
2020/12/05 07:10:21;;;;;;;25.20;17.87;;;2.00;99.90;;;;;;5051365;28;20913;-72
2020/12/05 07:12:48;;;;;;;22.73;16.80;;;2.00;99.90;;;;;;5051707;28;20855;-72
2020/12/05 07:15:22;;;;;;;23.17;16.07;;;2.00;99.90;;;;;;5051851;28;20487;-72
2020/12/05 07:17:49;;;;;;;21.67;16.93;;;2.10;99.90;;;;;;5052174;28;20530;-72
2020/12/05 07:20:17;;;;;;;24.70;17.90;;;2.20;99.90;;;;;;5052282;28;20472;-72
2020/12/05 07:22:45;;;;;;;21.60;16.63;;;2.20;99.90;;;;;;5051757;28;20456;-72
2020/12/05 07:25:12;;;;;;;19.97;17.87;;;2.10;99.90;;;;;;5050706;28;20475;-72
2020/12/05 07:27:39;;;;;;;23.40;15.87;;;2.10;99.90;;;;;;5050956;28;20455;-72
2020/12/05 07:30:06;;;;;;;20.80;15.67;;;2.10;99.90;;;;;;5050966;28;20462;-73
2020/12/05 07:32:33;;;;;;;20.30;16.57;;;2.00;99.90;;;;;;5054183;28;20451;-73
2020/12/05 07:35:02;;;;;;;19.83;16.03;;;2.00;99.90;;;;;;5055077;28;20449;-72
2020/12/05 07:37:30;;;;;;;21.23;16.27;;;2.10;99.90;;;;;;5054780;28;20490;-72
2020/12/05 07:39:56;;;;;;;23.20;17.83;;;2.10;99.90;;;;;;5054656;28;20476;-72
2020/12/05 07:42:23;;;;;;;22.60;17.50;;;2.10;99.90;;;;;;5062761;28;20467;-72
2020/12/05 07:44:50;;;;;;;19.40;15.33;;;2.10;99.90;;;;;;5074797;28;20431;-71
2020/12/05 07:47:20;;;;;;;22.27;17.47;;;2.20;99.90;;;;;;5074827;28;20462;-71
2020/12/05 07:49:51;;;;;;;26.57;19.70;;;2.20;99.90;;;;;;5075134;28;20427;-72
2020/12/05 07:52:19;;;;;;;22.03;16.53;;;2.20;99.90;;;;;;5074604;28;20447;-72
2020/12/05 07:54:56;;;;;;;22.47;16.20;;;2.30;99.90;;;;;;5074899;28;20470;-72
2020/12/05 07:57:26;;;;;;;19.73;15.40;;;2.30;99.90;;;;;;5075219;28;20526;-72
2020/12/05 08:00:01;;;;;;;19.63;16.30;;;2.30;99.90;;;;;;5074857;28;20479;-71
2020/12/05 08:02:46;;;;;;;19.87;14.70;;;2.40;99.90;;;;;;5075356;28;20443;-72
2020/12/05 08:05:26;;;;;;;16.70;14.93;;;2.50;99.90;;;;;;5087552;28;20446;-72
2020/12/05 08:08:01;;;;;;;20.80;16.40;;;2.50;99.90;;;;;;5074591;28;20488;-72
2020/12/05 08:10:31;;;;;;;18.73;14.90;;;2.50;99.90;;;;;;5074402;28;20431;-71
2020/12/05 08:13:22;;;;;;;20.67;15.00;;;2.50;99.90;;;;;;5074308;28;20611;-72
2020/12/05 08:15:53;;;;;;;20.00;14.90;;;2.60;99.90;;;;;;5059462;28;20482;-71
2020/12/05 08:18:21;;;;;;;23.00;17.40;;;2.60;99.90;;;;;;5074323;28;20966;-72
2020/12/05 08:20:49;;;;;;;18.70;14.23;;;2.70;99.90;;;;;;5074027;28;20482;-72
2020/12/05 08:23:27;;;;;;;18.87;13.43;;;2.70;99.90;;;;;;5074240;28;20505;-72
2020/12/05 08:25:58;;;;;;;15.90;13.70;;;2.70;99.90;;;;;;5074073;28;20871;-72
2020/12/05 08:28:25;;;;;;;20.33;15.20;;;2.80;99.90;;;;;;5073179;28;20998;-73
2020/12/05 08:30:54;;;;;;;18.23;14.83;;;2.80;99.90;;;;;;5073959;28;20439;-72
2020/12/05 08:33:20;;;;;;;19.13;15.00;;;2.70;99.90;;;;;;5074164;28;20435;-73
2020/12/05 08:35:47;;;;;;;14.53;12.60;;;2.80;99.90;;;;;;5073761;28;20442;-73
2020/12/05 08:38:22;;;;;;;15.97;13.30;;;2.90;99.90;;;;;;5074105;28;20496;-73
2020/12/05 08:41:00;;;;;;;19.13;14.40;;;3.00;99.90;;;;;;5073883;28;20470;-73
2020/12/05 08:43:27;;;;;;;23.63;15.97;;;3.10;99.90;;;;;;5073198;28;20423;-73
2020/12/05 08:45:54;;;;;;;20.20;16.27;;;3.00;99.90;;;;;;5073970;28;20447;-73
2020/12/05 08:48:21;;;;;;;15.97;14.13;;;3.00;99.90;;;;;;5073941;28;20431;-73
2020/12/05 08:50:49;;;;;;;19.83;15.80;;;3.10;99.90;;;;;;5073921;28;20913;-73
2020/12/05 08:53:20;;;;;;;20.07;15.10;;;3.20;99.90;;;;;;5073681;28;20435;-73
2020/12/05 08:55:48;;;;;;;19.90;15.90;;;3.30;99.90;;;;;;5073876;28;21047;-73
2020/12/05 08:58:16;;;;;;;19.57;15.90;;;3.30;99.90;;;;;;5073348;28;20440;-73
2020/12/05 09:00:49;;;;;;;18.53;14.30;;;3.50;99.90;;;;;;5073451;28;20834;-73
2020/12/05 09:03:21;;;;;;;18.03;14.27;;;3.50;99.90;;;;;;5069362;28;20876;-73
2020/12/05 09:05:48;;;;;;;19.00;14.10;;;3.60;99.90;;;;;;5071814;28;20434;-73
2020/12/05 09:08:23;;;;;;;15.40;12.80;;;3.60;99.90;;;;;;5071018;28;20461;-73
2020/12/05 09:10:51;;;;;;;16.60;13.70;;;3.60;99.90;;;;;;5071082;28;20453;-73
2020/12/05 09:13:19;;;;;;;17.97;13.60;;;3.60;99.90;;;;;;5070914;28;20432;-72
2020/12/05 09:15:56;;;;;;;14.63;13.07;;;3.60;99.90;;;;;;5071990;28;20435;-73
2020/12/05 09:18:23;;;;;;;16.87;13.43;;;3.60;99.90;;;;;;5073188;28;20439;-73
2020/12/05 09:20:49;;;;;;;18.77;13.70;;;3.60;99.90;;;;;;5072491;28;20477;-73
2020/12/05 09:23:27;;;;;;;19.00;14.53;;;3.60;99.90;;;;;;5072035;28;20431;-73
2020/12/05 09:26:01;;;;;;;15.97;13.13;;;3.70;99.90;;;;;;5072895;28;20473;-73
2020/12/05 09:28:29;;;;;;;16.43;13.27;;;3.70;99.90;;;;;;5073249;28;20868;-73
2020/12/05 09:30:56;;;;;;;14.77;13.27;;;3.90;99.90;;;;;;5072538;28;20493;-73
2020/12/05 09:33:23;;;;;;;16.83;14.10;;;4.00;99.90;;;;;;5073189;28;20471;-72
2020/12/05 09:35:49;;;;;;;15.60;13.87;;;4.00;99.90;;;;;;5064848;28;20535;-73
2020/12/05 09:38:17;;;;;;;16.80;13.47;;;4.10;99.90;;;;;;5073006;28;20525;-72
2020/12/05 09:40:43;;;;;;;18.80;14.27;;;4.30;99.90;;;;;;5061685;28;20495;-73
2020/12/05 09:43:10;;;;;;;15.10;13.40;;;4.20;99.90;;;;;;5063117;28;20455;-73
2020/12/05 09:45:38;;;;;;;18.10;11.80;;;4.20;99.90;;;;;;5062801;28;20952;-73
2020/12/05 09:48:04;;;;;;;14.90;12.30;;;4.30;99.90;;;;;;5061644;28;20437;-73
2020/12/05 09:50:31;;;;;;;15.47;12.07;;;4.30;99.90;;;;;;5063835;28;20458;-72
2020/12/05 09:52:59;;;;;;;15.70;12.53;;;4.30;99.90;;;;;;5063716;28;20521;-73
2020/12/05 09:55:26;;;;;;;14.77;12.57;;;4.30;99.90;;;;;;5063054;28;20444;-73
2020/12/05 09:57:53;;;;;;;15.80;13.00;;;4.30;99.90;;;;;;5062878;28;20847;-73
2020/12/05 10:00:20;;;;;;;14.93;12.10;;;4.40;99.90;;;;;;5062354;28;20475;-73
2020/12/05 10:02:47;;;;;;;15.10;13.50;;;4.40;99.90;;;;;;5063707;28;20451;-73
2020/12/05 10:05:14;;;;;;;15.17;13.40;;;4.50;99.90;;;;;;5062187;28;20427;-72
2020/12/05 10:07:41;;;;;;;15.70;12.70;;;4.60;99.90;;;;;;5072373;28;20435;-72
2020/12/05 10:10:09;;;;;;;15.33;13.13;;;4.70;99.90;;;;;;5072088;28;20478;-73
2020/12/05 10:12:37;;;;;;;16.60;12.03;;;4.70;99.90;;;;;;5072742;28;20455;-73
2020/12/05 10:15:05;;;;;;;18.17;12.43;;;4.70;99.90;;;;;;5072975;28;20920;-73
2020/12/05 10:17:33;;;;;;;15.63;13.23;;;4.70;99.90;;;;;;5072555;28;20442;-73
2020/12/05 10:20:00;;;;;;;14.23;12.10;;;4.60;99.90;;;;;;5060901;28;20483;-73
2020/12/05 10:22:27;;;;;;;14.30;12.80;;;4.80;99.90;;;;;;5050108;28;20471;-73
2020/12/05 10:24:53;;;;;;;13.93;12.40;;;4.80;99.90;;;;;;5050295;28;20436;-73
2020/12/05 10:27:20;;;;;;;15.37;13.40;;;4.80;99.90;;;;;;5054136;28;20805;-73
2020/12/05 10:29:47;;;;;;;15.10;13.40;;;4.90;99.90;;;;;;5069475;28;20989;-73
2020/12/05 10:32:13;;;;;;;16.10;12.57;;;5.00;99.90;;;;;;5069502;28;20492;-73
2020/12/05 10:34:41;;;;;;;17.90;13.03;;;5.10;99.90;;;;;;5070585;28;20435;-73
2020/12/05 10:37:08;;;;;;;16.20;13.20;;;5.20;99.90;;;;;;5069780;28;20947;-73
2020/12/05 10:39:35;;;;;;;15.40;13.67;;;5.30;99.90;;;;;;5069798;28;20435;-73
2020/12/05 10:42:01;;;;;;;15.00;13.20;;;5.30;99.90;;;;;;5069517;28;20451;-73
2020/12/05 10:44:28;;;;;;;15.47;12.70;;;5.40;99.90;;;;;;5069355;28;20435;-72
2020/12/05 10:46:54;;;;;;;17.13;12.83;;;5.30;99.90;;;;;;5069910;28;20735;-73
2020/12/05 10:49:22;;;;;;;15.30;13.30;;;5.30;99.90;;;;;;5070071;28;20431;-72
2020/12/05 10:51:49;;;;;;;14.07;12.57;;;5.10;99.90;;;;;;5070318;28;20501;-73
2020/12/05 10:54:17;;;;;;;15.40;12.30;;;5.00;99.90;;;;;;5070182;28;20431;-72
2020/12/05 10:56:44;;;;;;;13.43;10.90;;;5.00;99.90;;;;;;5069803;28;20431;-73
2020/12/05 10:59:11;;;;;;;15.23;12.00;;;4.90;99.90;;;;;;5069692;28;20950;-72
2020/12/05 11:01:37;;;;;;;14.87;11.97;;;4.90;99.90;;;;;;5069209;28;20508;-72
2020/12/05 11:04:04;;;;;;;17.17;13.60;;;4.80;99.90;;;;;;5069984;28;20439;-73
2020/12/05 11:06:30;;;;;;;16.77;13.13;;;4.80;99.90;;;;;;5068883;28;20897;-73
2020/12/05 11:08:57;;;;;;;16.80;13.07;;;4.70;99.90;;;;;;5070239;28;20458;-73
2020/12/05 11:11:25;;;;;;;13.30;11.90;;;4.70;99.90;;;;;;5070384;28;20836;-73
2020/12/05 11:13:51;;;;;;;15.80;12.90;;;4.70;99.90;;;;;;5070221;28;20432;-73
2020/12/05 11:16:19;;;;;;;16.57;12.27;;;4.80;99.90;;;;;;5070768;28;20435;-73
2020/12/05 11:18:46;;;;;;;13.67;11.63;;;4.80;99.90;;;;;;5070023;28;20443;-72
2020/12/05 11:21:13;;;;;;;13.70;12.30;;;4.80;99.90;;;;;;5069432;28;20483;-72
2020/12/05 11:23:40;;;;;;;15.47;13.53;;;4.80;99.90;;;;;;5069917;28;20436;-72
2020/12/05 11:26:07;;;;;;;12.53;10.80;;;4.90;99.90;;;;;;5070298;28;20489;-72
2020/12/05 11:28:35;;;;;;;12.93;10.70;;;5.00;99.90;;;;;;5069907;28;20447;-72
2020/12/05 11:31:01;;;;;;;15.80;12.17;;;5.20;99.90;;;;;;5069253;28;20492;-72
2020/12/05 11:33:30;;;;;;;15.80;12.13;;;5.30;99.90;;;;;;5069641;28;20921;-72
2020/12/05 11:35:56;;;;;;;14.60;12.20;;;5.40;99.90;;;;;;5069598;28;20455;-72
2020/12/05 11:38:23;;;;;;;14.70;12.07;;;5.40;99.90;;;;;;5069903;28;20435;-73
2020/12/05 11:40:50;;;;;;;14.20;12.70;;;5.40;99.90;;;;;;5070296;28;20475;-72
2020/12/05 11:43:17;;;;;;;15.90;12.90;;;5.40;99.90;;;;;;5063947;28;20433;-72
2020/12/05 11:45:46;;;;;;;14.53;12.57;;;5.50;99.90;;;;;;5060822;28;20435;-72
2020/12/05 11:48:13;;;;;;;13.67;12.27;;;5.50;99.90;;;;;;5060957;28;20504;-72
2020/12/05 11:50:39;;;;;;;15.70;12.43;;;5.50;99.90;;;;;;5058710;28;20474;-72
2020/12/05 11:53:06;;;;;;;12.67;11.37;;;5.40;99.90;;;;;;5059326;28;20462;-72
2020/12/05 11:55:33;;;;;;;15.73;13.13;;;5.50;99.90;;;;;;5063609;28;20514;-72
2020/12/05 11:58:00;;;;;;;14.50;12.10;;;5.40;99.90;;;;;;5059257;28;20439;-72
2020/12/05 12:00:26;;;;;;;11.80;10.60;;;5.50;99.90;;;;;;5058476;28;20502;-72
2020/12/05 12:02:55;;;;;;;14.30;11.33;;;5.50;99.90;;;;;;5059066;28;20483;-72
2020/12/05 12:05:22;;;;;;;12.63;11.43;;;5.40;99.90;;;;;;5070812;28;20435;-72
2020/12/05 12:07:48;;;;;;;14.23;12.30;;;5.50;99.90;;;;;;5072003;28;20829;-72
2020/12/05 12:10:15;;;;;;;12.37;11.07;;;5.50;99.90;;;;;;5072587;28;20431;-73
2020/12/05 12:12:43;;;;;;;12.47;11.17;;;5.50;99.90;;;;;;5071797;28;20964;-73
2020/12/05 12:15:12;;;;;;;12.17;10.70;;;5.50;99.90;;;;;;5071579;28;20482;-73
2020/12/05 12:17:39;;;;;;;14.70;11.90;;;5.60;99.90;;;;;;5072740;28;20427;-73
2020/12/05 12:20:06;;;;;;;13.67;12.10;;;5.60;99.90;;;;;;5074262;28;20474;-73
2020/12/05 12:22:33;;;;;;;13.20;11.70;;;5.60;99.90;;;;;;5074421;28;20463;-73
2020/12/05 12:24:59;;;;;;;14.80;13.13;;;5.60;99.90;;;;;;5066128;28;20539;-72
2020/12/05 12:27:26;;;;;;;15.13;13.40;;;5.50;99.90;;;;;;5064751;28;20856;-73
2020/12/05 12:29:53;;;;;;;14.67;13.13;;;5.40;99.90;;;;;;5064922;28;20995;-73
2020/12/05 12:32:20;;;;;;;13.53;12.13;;;5.40;99.90;;;;;;5063694;28;20460;-73
2020/12/05 12:34:46;;;;;;;14.17;12.20;;;5.40;99.90;;;;;;5066604;28;20965;-72
2020/12/05 12:37:14;;;;;;;14.90;13.17;;;5.30;99.90;;;;;;5064183;28;20453;-73
2020/12/05 12:39:40;;;;;;;16.73;14.40;;;5.20;99.90;;;;;;5068323;28;20505;-73
2020/12/05 12:42:07;;;;;;;14.00;12.40;;;5.30;99.90;;;;;;5066284;28;20486;-72